sensor_id;sensor_type;location;lat;lon;timestamp;pressure;altitude;pressure_sealevel;temperature;humidity
23118;BME280;11728;50.624;6.014;2023-04-01T00:02:34;96228.88;;;9.33;100.00
23118;BME280;11728;50.624;6.014;2023-04-01T00:07:36;96230.56;;;9.34;100.00
23118;BME280;11728;50.624;6.014;2023-04-01T00:12:37;96234.91;;;9.35;100.00
23118;BME280;11728;50.624;6.014;2023-04-01T00:17:38;96223.44;;;9.36;100.00
23118;BME280;11728;50.624;6.014;2023-04-01T00:22:38;96235.69;;;9.37;100.00
23118;BME280;11728;50.624;6.014;2023-04-01T00:27:39;96214.72;;;9.36;100.00
23118;BME280;11728;50.624;6.014;2023-04-01T00:32:39;96240.41;;;9.31;100.00
23118;BME280;11728;50.624;6.014;2023-04-01T00:37:40;96213.94;;;9.34;100.00
23118;BME280;11728;50.624;6.014;2023-04-01T00:42:40;96220.22;;;9.31;100.00
23118;BME280;11728;50.624;6.014;2023-04-01T00:47:40;96224.69;;;9.29;100.00
23118;BME280;11728;50.624;6.014;2023-04-01T00:52:41;96223.91;;;9.27;100.00
23118;BME280;11728;50.624;6.014;2023-04-01T00:57:43;96234.63;;;9.24;100.00
23118;BME280;11728;50.624;6.014;2023-04-01T01:02:46;96233.06;;;9.20;100.00
23118;BME280;11728;50.624;6.014;2023-04-01T01:13:36;96230.13;;;9.10;100.00
23118;BME280;11728;50.624;6.014;2023-04-01T01:19:03;96225.91;;;9.06;100.00
23118;BME280;11728;50.624;6.014;2023-04-01T01:29:45;96227.16;;;8.99;100.00
23118;BME280;11728;50.624;6.014;2023-04-01T01:35:51;96228.16;;;8.96;100.00
23118;BME280;11728;50.624;6.014;2023-04-01T01:40:19;96234.25;;;8.97;100.00
23118;BME280;11728;50.624;6.014;2023-04-01T01:45:23;96225.44;;;8.98;100.00
23118;BME280;11728;50.624;6.014;2023-04-01T01:50:26;96231.59;;;8.98;100.00
23118;BME280;11728;50.624;6.014;2023-04-01T01:55:31;96241.41;;;8.95;100.00
23118;BME280;11728;50.624;6.014;2023-04-01T02:00:33;96230.19;;;8.91;100.00
23118;BME280;11728;50.624;6.014;2023-04-01T02:05:35;96230.22;;;8.90;100.00
23118;BME280;11728;50.624;6.014;2023-04-01T02:10:37;96207.41;;;8.90;100.00
23118;BME280;11728;50.624;6.014;2023-04-01T02:15:42;96217.16;;;8.88;100.00
23118;BME280;11728;50.624;6.014;2023-04-01T02:20:45;96213.69;;;8.88;100.00
23118;BME280;11728;50.624;6.014;2023-04-01T02:25:46;96202.28;;;8.87;100.00
23118;BME280;11728;50.624;6.014;2023-04-01T02:30:48;96210.09;;;8.89;100.00
23118;BME280;11728;50.624;6.014;2023-04-01T02:35:50;96210.97;;;8.89;100.00
23118;BME280;11728;50.624;6.014;2023-04-01T02:40:57;96214.53;;;8.88;100.00
23118;BME280;11728;50.624;6.014;2023-04-01T02:45:58;96212.81;;;8.87;100.00
23118;BME280;11728;50.624;6.014;2023-04-01T02:50:58;96230.41;;;8.87;100.00
23118;BME280;11728;50.624;6.014;2023-04-01T02:55:59;96229.47;;;8.88;100.00
23118;BME280;11728;50.624;6.014;2023-04-01T03:00:59;96232.88;;;8.90;100.00
23118;BME280;11728;50.624;6.014;2023-04-01T03:06:07;96230.31;;;8.88;100.00
23118;BME280;11728;50.624;6.014;2023-04-01T03:11:09;96230.22;;;8.90;100.00
23118;BME280;11728;50.624;6.014;2023-04-01T03:16:10;96244.56;;;8.84;100.00
23118;BME280;11728;50.624;6.014;2023-04-01T03:21:15;96243.88;;;8.81;100.00
23118;BME280;11728;50.624;6.014;2023-04-01T03:26:16;96244.78;;;8.80;100.00
23118;BME280;11728;50.624;6.014;2023-04-01T03:31:17;96252.69;;;8.80;100.00
23118;BME280;11728;50.624;6.014;2023-04-01T03:36:17;96252.69;;;8.80;100.00
23118;BME280;11728;50.624;6.014;2023-04-01T03:41:18;96249.97;;;8.81;100.00
23118;BME280;11728;50.624;6.014;2023-04-01T03:46:19;96243.59;;;8.85;100.00
23118;BME280;11728;50.624;6.014;2023-04-01T03:51:19;96250.53;;;8.88;100.00
23118;BME280;11728;50.624;6.014;2023-04-01T03:56:20;96259.19;;;8.90;100.00
23118;BME280;11728;50.624;6.014;2023-04-01T04:01:21;96255.63;;;8.91;100.00
23118;BME280;11728;50.624;6.014;2023-04-01T04:06:23;96256.50;;;8.91;100.00
23118;BME280;11728;50.624;6.014;2023-04-01T04:11:24;96268.66;;;8.94;100.00
23118;BME280;11728;50.624;6.014;2023-04-01T04:16:24;96272.19;;;8.93;100.00
23118;BME280;11728;50.624;6.014;2023-04-01T04:21:24;96275.63;;;8.95;100.00
23118;BME280;11728;50.624;6.014;2023-04-01T04:26:25;96288.69;;;8.96;100.00
23118;BME280;11728;50.624;6.014;2023-04-01T04:31:26;96293.88;;;8.98;100.00
23118;BME280;11728;50.624;6.014;2023-04-01T04:36:27;96284.13;;;9.00;100.00
23118;BME280;11728;50.624;6.014;2023-04-01T04:41:27;96293.88;;;8.98;100.00
23118;BME280;11728;50.624;6.014;2023-04-01T04:46:27;96300.06;;;8.97;100.00
23118;BME280;11728;50.624;6.014;2023-04-01T04:51:28;96305.28;;;8.98;100.00
23118;BME280;11728;50.624;6.014;2023-04-01T04:56:28;96311.38;;;8.99;100.00
23118;BME280;11728;50.624;6.014;2023-04-01T05:01:28;96321.91;;;8.99;100.00
23118;BME280;11728;50.624;6.014;2023-04-01T05:06:29;96317.44;;;9.01;100.00
23118;BME280;11728;50.624;6.014;2023-04-01T05:11:29;96328.75;;;9.03;100.00
23118;BME280;11728;50.624;6.014;2023-04-01T05:16:30;96326.88;;;9.05;100.00
23118;BME280;11728;50.624;6.014;2023-04-01T05:21:31;96337.41;;;9.05;100.00
23118;BME280;11728;50.624;6.014;2023-04-01T05:26:32;96343.44;;;9.07;100.00
23118;BME280;11728;50.624;6.014;2023-04-01T05:31:33;96351.22;;;9.10;100.00
23118;BME280;11728;50.624;6.014;2023-04-01T05:36:33;96355.59;;;9.09;100.00
23118;BME280;11728;50.624;6.014;2023-04-01T05:41:35;96350.25;;;9.11;100.00
23118;BME280;11728;50.624;6.014;2023-04-01T05:46:35;96353.84;;;9.10;100.00
23118;BME280;11728;50.624;6.014;2023-04-01T05:51:36;96364.38;;;9.10;100.00
23118;BME280;11728;50.624;6.014;2023-04-01T05:56:36;96361.75;;;9.10;100.00
23118;BME280;11728;50.624;6.014;2023-04-01T06:01:37;96366.84;;;9.13;100.00
23118;BME280;11728;50.624;6.014;2023-04-01T06:06:38;96371.09;;;9.15;100.00
23118;BME280;11728;50.624;6.014;2023-04-01T06:17:18;96384.13;;;9.18;100.00
23118;BME280;11728;50.624;6.014;2023-04-01T06:27:45;96391.44;;;9.30;100.00
23118;BME280;11728;50.624;6.014;2023-04-01T06:33:03;96393.22;;;9.29;100.00
23118;BME280;11728;50.624;6.014;2023-04-01T06:43:36;96409.38;;;9.22;100.00
23118;BME280;11728;50.624;6.014;2023-04-01T06:54:21;96428.75;;;9.21;100.00
23118;BME280;11728;50.624;6.014;2023-04-01T06:59:28;96428.09;;;9.16;100.00
23118;BME280;11728;50.624;6.014;2023-04-01T07:04:32;96429.91;;;9.16;100.00
23118;BME280;11728;50.624;6.014;2023-04-01T07:09:38;96436.00;;;9.16;100.00
23118;BME280;11728;50.624;6.014;2023-04-01T07:14:41;96434.03;;;9.21;100.00
23118;BME280;11728;50.624;6.014;2023-04-01T07:19:58;96441.56;;;9.28;100.00
23118;BME280;11728;50.624;6.014;2023-04-01T07:25:12;96444.97;;;9.30;100.00
23118;BME280;11728;50.624;6.014;2023-04-01T07:30:15;96451.03;;;9.32;100.00
23118;BME280;11728;50.624;6.014;2023-04-01T07:35:23;96464.13;;;9.34;100.00
23118;BME280;11728;50.624;6.014;2023-04-01T07:41:04;96467.47;;;9.37;100.00
23118;BME280;11728;50.624;6.014;2023-04-01T07:56:56;96487.81;;;9.52;100.00
23118;BME280;11728;50.624;6.014;2023-04-01T08:02:24;96491.50;;;9.48;100.00
23118;BME280;11728;50.624;6.014;2023-04-01T08:24:07;96522.69;;;9.57;100.00
23118;BME280;11728;50.624;6.014;2023-04-01T08:29:23;96523.19;;;9.65;100.00
23118;BME280;11728;50.624;6.014;2023-04-01T08:34:37;96537.06;;;9.69;100.00
23118;BME280;11728;50.624;6.014;2023-04-01T08:39:42;96535.94;;;9.74;100.00
23118;BME280;11728;50.624;6.014;2023-04-01T08:55:36;96553.56;;;9.91;100.00
23118;BME280;11728;50.624;6.014;2023-04-01T09:00:53;96562.19;;;9.94;100.00
23118;BME280;11728;50.624;6.014;2023-04-01T09:11:30;96577.09;;;9.77;100.00
23118;BME280;11728;50.624;6.014;2023-04-01T09:16:41;96581.84;;;9.87;100.00
23118;BME280;11728;50.624;6.014;2023-04-01T09:22:10;96583.34;;;9.93;100.00
23118;BME280;11728;50.624;6.014;2023-04-01T09:27:26;96584.34;;;9.90;100.00
23118;BME280;11728;50.624;6.014;2023-04-01T09:33:17;96593.31;;;9.86;
23118;BME280;11728;50.624;6.014;2023-04-01T09:38:30;96602.03;;;9.88;100.00
23118;BME280;11728;50.624;6.014;2023-04-01T09:44:15;96601.91;;;9.91;100.00
23118;BME280;11728;50.624;6.014;2023-04-01T11:14:45;96659.63;;;10.51;100.00
23118;BME280;11728;50.624;6.014;2023-04-01T11:41:24;96685.22;;;10.67;100.00
23118;BME280;11728;50.624;6.014;2023-04-01T11:57:12;96705.34;;;10.70;100.00
23118;BME280;11728;50.624;6.014;2023-04-01T12:02:31;96714.66;;;10.76;100.00
23118;BME280;11728;50.624;6.014;2023-04-01T12:07:52;96725.44;;;10.72;100.00
23118;BME280;11728;50.624;6.014;2023-04-01T12:13:18;96731.56;;;10.91;100.00
23118;BME280;11728;50.624;6.014;2023-04-01T12:24:29;96744.78;;;11.08;100.00
23118;BME280;11728;50.624;6.014;2023-04-01T12:56:50;96752.50;;;11.46;100.00
23118;BME280;11728;50.624;6.014;2023-04-01T13:07:16;96774.09;;;11.20;100.00
23118;BME280;11728;50.624;6.014;2023-04-01T13:23:24;96775.06;;;11.87;100.00
23118;BME280;11728;50.624;6.014;2023-04-01T13:34:13;96788.03;;;11.57;100.00
23118;BME280;11728;50.624;6.014;2023-04-01T13:39:41;96790.69;;;11.74;100.00
23118;BME280;11728;50.624;6.014;2023-04-01T13:44:59;96792.66;;;11.88;100.00
23118;BME280;11728;50.624;6.014;2023-04-01T13:50:17;96802.44;;;11.86;100.00
23118;BME280;11728;50.624;6.014;2023-04-01T13:55:26;96803.22;;;11.54;100.00
23118;BME280;11728;50.624;6.014;2023-04-01T14:01:00;96809.34;;;11.19;100.00
23118;BME280;11728;50.624;6.014;2023-04-01T14:06:16;96811.69;;;11.25;100.00
23118;BME280;11728;50.624;6.014;2023-04-01T14:11:40;96820.59;;;11.41;100.00
23118;BME280;11728;50.624;6.014;2023-04-01T14:17:21;96821.56;;;11.22;100.00
23118;BME280;11728;50.624;6.014;2023-04-01T14:33:21;96827.41;;;11.28;100.00
23118;BME280;11728;50.624;6.014;2023-04-01T14:38:51;96840.88;;;11.59;100.00
23118;BME280;11728;50.624;6.014;2023-04-01T14:49:15;96841.94;;;11.55;100.00
23118;BME280;11728;50.624;6.014;2023-04-01T14:54:21;96847.13;;;11.21;100.00
23118;BME280;11728;50.624;6.014;2023-04-01T14:59:30;96852.53;;;11.01;100.00
23118;BME280;11728;50.624;6.014;2023-04-01T15:21:30;96883.84;;;10.72;100.00
23118;BME280;11728;50.624;6.014;2023-04-01T15:31:50;96904.22;;;10.50;100.00
23118;BME280;11728;50.624;6.014;2023-04-01T15:37:04;96906.53;;;10.58;100.00
23118;BME280;11728;50.624;6.014;2023-04-01T16:19:33;96956.81;;;10.35;100.00
23118;BME280;11728;50.624;6.014;2023-04-01T16:25:14;96952.72;;;10.28;100.00
23118;BME280;11728;50.624;6.014;2023-04-01T16:51:03;96997.25;;;10.14;100.00
23118;BME280;11728;50.624;6.014;2023-04-01T16:56:11;96994.78;;;10.11;100.00
23118;BME280;11728;50.624;6.014;2023-04-01T17:01:20;97002.75;;;10.09;100.00
23118;BME280;11728;50.624;6.014;2023-04-01T17:06:40;97010.72;;;10.08;100.00
23118;BME280;11728;50.624;6.014;2023-04-01T17:17:24;97025.66;;;10.29;100.00
23118;BME280;11728;50.624;6.014;2023-04-01T17:22:40;97026.44;;;10.51;100.00
23118;BME280;11728;50.624;6.014;2023-04-01T17:27:59;97037.00;;;10.51;100.00
23118;BME280;11728;50.624;6.014;2023-04-01T17:44:05;97046.91;;;10.46;100.00
23118;BME280;11728;50.624;6.014;2023-04-01T17:59:37;97067.97;;;9.83;100.00
23118;BME280;11728;50.624;6.014;2023-04-01T18:15:28;97085.81;;;9.54;100.00
23118;BME280;11728;50.624;6.014;2023-04-01T18:25:53;97099.31;;;9.46;100.00
23118;BME280;11728;50.624;6.014;2023-04-01T18:31:03;97106.50;;;9.41;100.00
23118;BME280;11728;50.624;6.014;2023-04-01T18:36:21;97115.50;;;9.36;100.00
23118;BME280;11728;50.624;6.014;2023-04-01T18:42:06;97119.25;;;9.29;100.00
23118;BME280;11728;50.624;6.014;2023-04-01T18:52:36;97141.19;;;9.29;100.00
23118;BME280;11728;50.624;6.014;2023-04-01T18:57:47;97141.38;;;9.25;100.00
23118;BME280;11728;50.624;6.014;2023-04-01T19:03:12;97153.63;;;9.26;100.00
23118;BME280;11728;50.624;6.014;2023-04-01T19:08:40;97158.22;;;9.19;100.00
23118;BME280;11728;50.624;6.014;2023-04-01T19:14:15;97161.03;;;9.15;100.00
23118;BME280;11728;50.624;6.014;2023-04-01T19:19:25;97162.91;;;9.12;100.00
23118;BME280;11728;50.624;6.014;2023-04-01T19:30:22;97172.69;;;9.08;100.00
23118;BME280;11728;50.624;6.014;2023-04-01T19:35:30;97174.56;;;9.05;100.00
23118;BME280;11728;50.624;6.014;2023-04-01T19:40:53;97174.47;;;9.08;100.00
23118;BME280;11728;50.624;6.014;2023-04-01T19:46:14;97176.19;;;9.09;100.00
23118;BME280;11728;50.624;6.014;2023-04-01T19:51:39;97178.69;;;9.13;100.00
23118;BME280;11728;50.624;6.014;2023-04-01T19:57:09;97184.13;;;9.07;100.00
23118;BME280;11728;50.624;6.014;2023-04-01T20:03:15;97189.47;;;9.06;100.00
23118;BME280;11728;50.624;6.014;2023-04-01T20:07:49;97198.25;;;9.05;100.00
23118;BME280;11728;50.624;6.014;2023-04-01T20:13:31;97213.16;;;9.06;100.00
23118;BME280;11728;50.624;6.014;2023-04-01T20:18:47;97207.78;;;9.09;100.00
23118;BME280;11728;50.624;6.014;2023-04-01T20:24:01;97214.66;;;9.13;100.00
23118;BME280;11728;50.624;6.014;2023-04-01T20:29:24;97223.53;;;9.10;100.00
23118;BME280;11728;50.624;6.014;2023-04-01T20:40:12;97228.97;;;9.06;100.00
23118;BME280;11728;50.624;6.014;2023-04-01T20:45:55;97243.00;;;9.06;100.00
23118;BME280;11728;50.624;6.014;2023-04-01T21:01:40;97250.78;;;9.09;100.00
23118;BME280;11728;50.624;6.014;2023-04-01T21:12:31;97257.81;;;9.09;100.00
23118;BME280;11728;50.624;6.014;2023-04-01T21:34:01;97279.69;;;9.11;100.00
23118;BME280;11728;50.624;6.014;2023-04-01T21:44:33;97288.38;;;9.14;100.00
23118;BME280;11728;50.624;6.014;2023-04-01T22:00:32;97300.44;;;9.19;100.00
23118;BME280;11728;50.624;6.014;2023-04-01T22:11:18;97313.38;;;9.27;100.00
23118;BME280;11728;50.624;6.014;2023-04-01T22:26:59;97325.38;;;9.35;100.00
23118;BME280;11728;50.624;6.014;2023-04-01T22:32:08;97331.34;;;9.40;100.00
23118;BME280;11728;50.624;6.014;2023-04-01T22:37:37;97338.16;;;9.47;100.00
23118;BME280;11728;50.624;6.014;2023-04-01T22:42:44;97343.22;;;9.53;100.00
23118;BME280;11728;50.624;6.014;2023-04-01T22:58:08;97351.06;;;9.55;100.00
23118;BME280;11728;50.624;6.014;2023-04-01T23:03:20;97367.94;;;9.49;100.00
23118;BME280;11728;50.624;6.014;2023-04-01T23:13:38;97380.31;;;9.47;100.00
23118;BME280;11728;50.624;6.014;2023-04-01T23:24:33;97405.50;;;9.28;100.00
23118;BME280;11728;50.624;6.014;2023-04-01T23:29:37;97411.69;;;9.27;100.00
23118;BME280;11728;50.624;6.014;2023-04-01T23:34:48;97419.72;;;9.24;100.00
23118;BME280;11728;50.624;6.014;2023-04-01T23:39:57;97438.38;;;9.17;100.00
23118;BME280;11728;50.624;6.014;2023-04-01T23:45:01;97446.47;;;9.11;100.00
23118;BME280;11728;50.624;6.014;2023-04-01T23:50:11;97454.44;;;9.08;100.00
23118;BME280;11728;50.624;6.014;2023-04-01T23:55:31;97451.88;;;9.07;100.00
